sensor_id;sensor_type;location;lat;lon;timestamp;P1;durP1;ratioP1;P2;durP2;ratioP2
52208;SDS011;38507;53.132;6.394;2022-10-16T00:01:22;7.57;;;1.73;;
52208;SDS011;38507;53.132;6.394;2022-10-16T00:03:50;6.68;;;2.00;;
52208;SDS011;38507;53.132;6.394;2022-10-16T00:06:17;10.60;;;1.67;;
52208;SDS011;38507;53.132;6.394;2022-10-16T00:08:44;9.23;;;1.80;;
52208;SDS011;38507;53.132;6.394;2022-10-16T00:11:12;10.18;;;1.67;;
52208;SDS011;38507;53.132;6.394;2022-10-16T00:13:39;6.03;;;1.83;;
52208;SDS011;38507;53.132;6.394;2022-10-16T00:16:06;9.73;;;1.58;;
52208;SDS011;38507;53.132;6.394;2022-10-16T00:18:38;7.75;;;1.52;;
52208;SDS011;38507;53.132;6.394;2022-10-16T00:21:11;8.45;;;1.60;;
52208;SDS011;38507;53.132;6.394;2022-10-16T00:23:39;7.40;;;1.38;;
52208;SDS011;38507;53.132;6.394;2022-10-16T00:26:06;5.80;;;1.50;;
52208;SDS011;38507;53.132;6.394;2022-10-16T00:28:34;9.68;;;1.60;;
52208;SDS011;38507;53.132;6.394;2022-10-16T00:31:05;9.63;;;1.90;;
52208;SDS011;38507;53.132;6.394;2022-10-16T00:33:32;9.13;;;1.55;;
52208;SDS011;38507;53.132;6.394;2022-10-16T00:35:58;9.88;;;1.67;;
52208;SDS011;38507;53.132;6.394;2022-10-16T00:38:24;8.45;;;2.33;;
52208;SDS011;38507;53.132;6.394;2022-10-16T00:40:50;8.00;;;1.60;;
52208;SDS011;38507;53.132;6.394;2022-10-16T00:46:01;8.43;;;1.90;;
52208;SDS011;38507;53.132;6.394;2022-10-16T00:48:28;7.28;;;1.60;;
52208;SDS011;38507;53.132;6.394;2022-10-16T00:50:54;8.13;;;1.58;;
52208;SDS011;38507;53.132;6.394;2022-10-16T00:53:22;5.57;;;1.50;;
52208;SDS011;38507;53.132;6.394;2022-10-16T00:55:49;4.20;;;1.50;;
52208;SDS011;38507;53.132;6.394;2022-10-16T00:58:15;9.77;;;1.50;;
52208;SDS011;38507;53.132;6.394;2022-10-16T01:00:40;7.78;;;2.33;;
52208;SDS011;38507;53.132;6.394;2022-10-16T01:03:23;8.18;;;1.50;;
52208;SDS011;38507;53.132;6.394;2022-10-16T01:05:53;6.27;;;1.43;;
52208;SDS011;38507;53.132;6.394;2022-10-16T01:09:02;3.35;;;1.13;;
52208;SDS011;38507;53.132;6.394;2022-10-16T01:11:27;10.98;;;1.52;;
52208;SDS011;38507;53.132;6.394;2022-10-16T01:14:00;7.45;;;1.58;;
52208;SDS011;38507;53.132;6.394;2022-10-16T01:16:48;7.78;;;1.23;;
52208;SDS011;38507;53.132;6.394;2022-10-16T01:19:25;7.38;;;1.40;;
52208;SDS011;38507;53.132;6.394;2022-10-16T01:22:01;6.03;;;1.30;;
52208;SDS011;38507;53.132;6.394;2022-10-16T01:27:07;8.98;;;1.40;;
52208;SDS011;38507;53.132;6.394;2022-10-16T01:40:28;8.25;;;1.27;;
52208;SDS011;38507;53.132;6.394;2022-10-16T01:43:01;7.05;;;1.67;;
52208;SDS011;38507;53.132;6.394;2022-10-16T01:45:31;9.27;;;1.80;;
52208;SDS011;38507;53.132;6.394;2022-10-16T01:47:58;7.43;;;1.63;;
52208;SDS011;38507;53.132;6.394;2022-10-16T01:50:25;6.03;;;1.60;;
52208;SDS011;38507;53.132;6.394;2022-10-16T01:52:52;7.90;;;1.65;;
52208;SDS011;38507;53.132;6.394;2022-10-16T01:55:25;4.88;;;1.13;;
52208;SDS011;38507;53.132;6.394;2022-10-16T01:58:02;8.00;;;1.60;;
52208;SDS011;38507;53.132;6.394;2022-10-16T02:00:34;6.90;;;1.50;;
52208;SDS011;38507;53.132;6.394;2022-10-16T02:03:03;8.23;;;1.70;;
52208;SDS011;38507;53.132;6.394;2022-10-16T02:08:06;6.50;;;2.25;;
52208;SDS011;38507;53.132;6.394;2022-10-16T02:10:32;6.75;;;1.42;;
52208;SDS011;38507;53.132;6.394;2022-10-16T02:13:01;5.40;;;1.92;;
52208;SDS011;38507;53.132;6.394;2022-10-16T02:15:31;9.70;;;1.88;;
52208;SDS011;38507;53.132;6.394;2022-10-16T02:17:57;8.52;;;1.90;;
52208;SDS011;38507;53.132;6.394;2022-10-16T02:20:25;4.13;;;1.25;;
52208;SDS011;38507;53.132;6.394;2022-10-16T02:22:54;4.88;;;1.20;;
52208;SDS011;38507;53.132;6.394;2022-10-16T02:25:27;5.28;;;1.23;;
52208;SDS011;38507;53.132;6.394;2022-10-16T02:30:43;5.93;;;1.10;;
52208;SDS011;38507;53.132;6.394;2022-10-16T02:33:14;6.72;;;1.83;;
52208;SDS011;38507;53.132;6.394;2022-10-16T02:35:42;5.78;;;1.27;;
52208;SDS011;38507;53.132;6.394;2022-10-16T02:38:10;6.82;;;1.42;;
52208;SDS011;38507;53.132;6.394;2022-10-16T02:40:36;4.78;;;1.33;;
52208;SDS011;38507;53.132;6.394;2022-10-16T02:43:03;8.65;;;1.50;;
52208;SDS011;38507;53.132;6.394;2022-10-16T02:45:29;6.82;;;1.35;;
52208;SDS011;38507;53.132;6.394;2022-10-16T02:47:56;6.00;;;1.25;;
52208;SDS011;38507;53.132;6.394;2022-10-16T02:50:24;7.63;;;1.40;;
52208;SDS011;38507;53.132;6.394;2022-10-16T02:52:50;7.40;;;1.30;;
52208;SDS011;38507;53.132;6.394;2022-10-16T02:55:16;2.50;;;1.40;;
52208;SDS011;38507;53.132;6.394;2022-10-16T02:57:42;5.20;;;1.20;;
52208;SDS011;38507;53.132;6.394;2022-10-16T03:00:09;7.18;;;1.27;;
52208;SDS011;38507;53.132;6.394;2022-10-16T03:02:36;4.60;;;1.20;;
52208;SDS011;38507;53.132;6.394;2022-10-16T03:05:02;5.03;;;1.60;;
52208;SDS011;38507;53.132;6.394;2022-10-16T03:07:27;6.50;;;1.40;;
52208;SDS011;38507;53.132;6.394;2022-10-16T03:09:53;6.35;;;1.65;;
52208;SDS011;38507;53.132;6.394;2022-10-16T03:12:20;6.15;;;1.25;;
52208;SDS011;38507;53.132;6.394;2022-10-16T03:14:46;6.47;;;1.35;;
52208;SDS011;38507;53.132;6.394;2022-10-16T03:17:12;4.28;;;1.17;;
52208;SDS011;38507;53.132;6.394;2022-10-16T03:19:38;8.13;;;1.55;;
52208;SDS011;38507;53.132;6.394;2022-10-16T03:22:04;3.63;;;1.30;;
52208;SDS011;38507;53.132;6.394;2022-10-16T03:24:30;5.45;;;1.48;;
52208;SDS011;38507;53.132;6.394;2022-10-16T03:26:55;4.72;;;1.40;;
52208;SDS011;38507;53.132;6.394;2022-10-16T03:29:21;5.20;;;1.20;;
52208;SDS011;38507;53.132;6.394;2022-10-16T03:31:47;3.08;;;1.33;;
52208;SDS011;38507;53.132;6.394;2022-10-16T03:34:14;5.15;;;1.23;;
52208;SDS011;38507;53.132;6.394;2022-10-16T03:36:40;4.22;;;1.40;;
52208;SDS011;38507;53.132;6.394;2022-10-16T03:39:06;4.75;;;1.30;;
52208;SDS011;38507;53.132;6.394;2022-10-16T03:41:31;4.60;;;1.35;;
52208;SDS011;38507;53.132;6.394;2022-10-16T03:43:57;3.65;;;1.15;;
52208;SDS011;38507;53.132;6.394;2022-10-16T03:46:22;7.60;;;1.67;;
52208;SDS011;38507;53.132;6.394;2022-10-16T03:48:48;4.15;;;1.52;;
52208;SDS011;38507;53.132;6.394;2022-10-16T03:51:14;6.38;;;1.58;;
52208;SDS011;38507;53.132;6.394;2022-10-16T03:53:39;8.63;;;1.40;;
52208;SDS011;38507;53.132;6.394;2022-10-16T03:56:05;7.97;;;1.60;;
52208;SDS011;38507;53.132;6.394;2022-10-16T03:58:31;7.32;;;1.90;;
52208;SDS011;38507;53.132;6.394;2022-10-16T04:00:56;6.97;;;1.30;;
52208;SDS011;38507;53.132;6.394;2022-10-16T04:03:22;6.28;;;1.63;;
52208;SDS011;38507;53.132;6.394;2022-10-16T04:05:48;6.07;;;1.38;;
52208;SDS011;38507;53.132;6.394;2022-10-16T04:08:14;2.95;;;1.25;;
52208;SDS011;38507;53.132;6.394;2022-10-16T04:10:42;6.07;;;1.58;;
52208;SDS011;38507;53.132;6.394;2022-10-16T04:13:08;6.18;;;1.60;;
52208;SDS011;38507;53.132;6.394;2022-10-16T04:15:34;4.28;;;1.30;;
52208;SDS011;38507;53.132;6.394;2022-10-16T04:18:00;3.75;;;1.50;;
52208;SDS011;38507;53.132;6.394;2022-10-16T04:20:26;4.75;;;1.70;;
52208;SDS011;38507;53.132;6.394;2022-10-16T04:22:51;2.67;;;1.23;;
52208;SDS011;38507;53.132;6.394;2022-10-16T04:25:17;6.32;;;1.63;;
52208;SDS011;38507;53.132;6.394;2022-10-16T04:27:43;5.97;;;1.80;;
52208;SDS011;38507;53.132;6.394;2022-10-16T04:30:08;2.75;;;1.27;;
52208;SDS011;38507;53.132;6.394;2022-10-16T04:32:34;2.38;;;1.40;;
52208;SDS011;38507;53.132;6.394;2022-10-16T04:35:00;10.95;;;1.30;;
52208;SDS011;38507;53.132;6.394;2022-10-16T04:37:26;4.75;;;1.33;;
52208;SDS011;38507;53.132;6.394;2022-10-16T04:39:52;4.43;;;1.50;;
52208;SDS011;38507;53.132;6.394;2022-10-16T04:42:19;5.95;;;1.58;;
52208;SDS011;38507;53.132;6.394;2022-10-16T04:44:45;10.85;;;1.95;;
52208;SDS011;38507;53.132;6.394;2022-10-16T04:47:10;6.35;;;1.88;;
52208;SDS011;38507;53.132;6.394;2022-10-16T04:49:36;6.78;;;1.55;;
52208;SDS011;38507;53.132;6.394;2022-10-16T04:52:02;5.03;;;1.60;;
52208;SDS011;38507;53.132;6.394;2022-10-16T04:54:31;5.38;;;1.40;;
52208;SDS011;38507;53.132;6.394;2022-10-16T04:56:56;3.70;;;1.60;;
52208;SDS011;38507;53.132;6.394;2022-10-16T04:59:22;7.47;;;1.83;;
52208;SDS011;38507;53.132;6.394;2022-10-16T05:01:49;6.65;;;1.70;;
52208;SDS011;38507;53.132;6.394;2022-10-16T05:04:15;4.60;;;1.67;;
52208;SDS011;38507;53.132;6.394;2022-10-16T05:06:41;6.43;;;1.80;;
52208;SDS011;38507;53.132;6.394;2022-10-16T05:09:07;4.82;;;2.00;;
52208;SDS011;38507;53.132;6.394;2022-10-16T05:11:33;7.95;;;1.98;;
52208;SDS011;38507;53.132;6.394;2022-10-16T05:13:59;5.35;;;1.83;;
52208;SDS011;38507;53.132;6.394;2022-10-16T05:16:25;8.15;;;1.90;;
52208;SDS011;38507;53.132;6.394;2022-10-16T05:18:52;8.10;;;2.00;;
52208;SDS011;38507;53.132;6.394;2022-10-16T05:21:18;6.88;;;1.83;;
52208;SDS011;38507;53.132;6.394;2022-10-16T05:23:43;5.70;;;1.80;;
52208;SDS011;38507;53.132;6.394;2022-10-16T05:26:09;5.38;;;2.03;;
52208;SDS011;38507;53.132;6.394;2022-10-16T05:28:35;4.75;;;2.10;;
52208;SDS011;38507;53.132;6.394;2022-10-16T05:31:04;5.30;;;1.63;;
52208;SDS011;38507;53.132;6.394;2022-10-16T05:33:31;4.38;;;1.73;;
52208;SDS011;38507;53.132;6.394;2022-10-16T05:36:00;6.47;;;1.95;;
52208;SDS011;38507;53.132;6.394;2022-10-16T05:38:30;6.72;;;2.03;;
52208;SDS011;38507;53.132;6.394;2022-10-16T05:40:55;5.97;;;1.85;;
52208;SDS011;38507;53.132;6.394;2022-10-16T05:43:21;11.10;;;1.98;;
52208;SDS011;38507;53.132;6.394;2022-10-16T05:45:57;8.23;;;2.03;;
52208;SDS011;38507;53.132;6.394;2022-10-16T05:48:24;9.40;;;2.00;;
52208;SDS011;38507;53.132;6.394;2022-10-16T05:51:00;6.35;;;2.03;;
52208;SDS011;38507;53.132;6.394;2022-10-16T05:53:29;3.90;;;1.58;;
52208;SDS011;38507;53.132;6.394;2022-10-16T05:55:56;8.93;;;2.10;;
52208;SDS011;38507;53.132;6.394;2022-10-16T05:58:22;6.40;;;2.15;;
52208;SDS011;38507;53.132;6.394;2022-10-16T06:01:02;6.28;;;2.60;;
52208;SDS011;38507;53.132;6.394;2022-10-16T06:03:30;7.35;;;2.17;;
52208;SDS011;38507;53.132;6.394;2022-10-16T06:05:58;5.20;;;2.08;;
52208;SDS011;38507;53.132;6.394;2022-10-16T06:08:24;6.20;;;1.98;;
52208;SDS011;38507;53.132;6.394;2022-10-16T06:11:00;5.25;;;2.03;;
52208;SDS011;38507;53.132;6.394;2022-10-16T06:13:30;6.35;;;2.58;;
52208;SDS011;38507;53.132;6.394;2022-10-16T06:15:56;6.10;;;2.47;;
52208;SDS011;38507;53.132;6.394;2022-10-16T06:18:24;11.02;;;2.20;;
52208;SDS011;38507;53.132;6.394;2022-10-16T06:20:50;7.03;;;2.38;;
52208;SDS011;38507;53.132;6.394;2022-10-16T06:23:16;7.03;;;2.28;;
52208;SDS011;38507;53.132;6.394;2022-10-16T06:25:41;7.97;;;2.75;;
52208;SDS011;38507;53.132;6.394;2022-10-16T06:28:07;4.85;;;2.50;;
52208;SDS011;38507;53.132;6.394;2022-10-16T06:30:35;10.85;;;2.35;;
52208;SDS011;38507;53.132;6.394;2022-10-16T06:33:04;7.10;;;2.30;;
52208;SDS011;38507;53.132;6.394;2022-10-16T06:35:30;8.35;;;2.45;;
52208;SDS011;38507;53.132;6.394;2022-10-16T06:37:56;10.15;;;2.58;;
52208;SDS011;38507;53.132;6.394;2022-10-16T06:40:22;7.20;;;2.45;;
52208;SDS011;38507;53.132;6.394;2022-10-16T06:42:48;7.70;;;2.40;;
52208;SDS011;38507;53.132;6.394;2022-10-16T06:45:14;8.00;;;2.22;;
52208;SDS011;38507;53.132;6.394;2022-10-16T06:47:39;6.15;;;1.77;;
52208;SDS011;38507;53.132;6.394;2022-10-16T06:50:05;7.65;;;2.40;;
52208;SDS011;38507;53.132;6.394;2022-10-16T06:52:34;5.60;;;2.13;;
52208;SDS011;38507;53.132;6.394;2022-10-16T06:55:00;5.82;;;2.08;;
52208;SDS011;38507;53.132;6.394;2022-10-16T06:57:26;7.25;;;2.58;;
52208;SDS011;38507;53.132;6.394;2022-10-16T06:59:51;7.90;;;2.30;;
52208;SDS011;38507;53.132;6.394;2022-10-16T07:02:17;8.77;;;2.55;;
52208;SDS011;38507;53.132;6.394;2022-10-16T07:04:43;7.40;;;2.22;;
52208;SDS011;38507;53.132;6.394;2022-10-16T07:07:08;8.25;;;2.10;;
52208;SDS011;38507;53.132;6.394;2022-10-16T07:09:34;9.43;;;2.40;;
52208;SDS011;38507;53.132;6.394;2022-10-16T07:11:59;7.88;;;2.50;;
52208;SDS011;38507;53.132;6.394;2022-10-16T07:14:25;9.27;;;2.20;;
52208;SDS011;38507;53.132;6.394;2022-10-16T07:16:51;7.50;;;1.90;;
52208;SDS011;38507;53.132;6.394;2022-10-16T07:19:16;7.68;;;2.50;;
52208;SDS011;38507;53.132;6.394;2022-10-16T07:21:43;7.05;;;2.20;;
52208;SDS011;38507;53.132;6.394;2022-10-16T07:24:13;5.75;;;2.35;;
52208;SDS011;38507;53.132;6.394;2022-10-16T07:26:40;9.15;;;2.63;;
52208;SDS011;38507;53.132;6.394;2022-10-16T07:29:14;7.40;;;2.47;;
52208;SDS011;38507;53.132;6.394;2022-10-16T07:31:42;6.28;;;2.30;;
52208;SDS011;38507;53.132;6.394;2022-10-16T07:34:08;6.28;;;2.30;;
52208;SDS011;38507;53.132;6.394;2022-10-16T07:36:35;6.03;;;2.05;;
52208;SDS011;38507;53.132;6.394;2022-10-16T07:39:01;5.72;;;2.13;;
52208;SDS011;38507;53.132;6.394;2022-10-16T07:41:26;9.70;;;2.42;;
52208;SDS011;38507;53.132;6.394;2022-10-16T07:43:53;11.52;;;2.58;;
52208;SDS011;38507;53.132;6.394;2022-10-16T07:46:20;7.68;;;2.33;;
52208;SDS011;38507;53.132;6.394;2022-10-16T07:48:47;7.60;;;2.60;;
52208;SDS011;38507;53.132;6.394;2022-10-16T07:51:14;5.30;;;2.25;;
52208;SDS011;38507;53.132;6.394;2022-10-16T07:53:45;5.43;;;2.38;;
52208;SDS011;38507;53.132;6.394;2022-10-16T07:56:11;6.53;;;2.50;;
52208;SDS011;38507;53.132;6.394;2022-10-16T07:58:38;8.50;;;2.55;;
52208;SDS011;38507;53.132;6.394;2022-10-16T08:01:08;6.85;;;2.50;;
52208;SDS011;38507;53.132;6.394;2022-10-16T08:03:35;4.85;;;2.30;;
52208;SDS011;38507;53.132;6.394;2022-10-16T08:06:02;8.30;;;2.10;;
52208;SDS011;38507;53.132;6.394;2022-10-16T08:08:32;6.38;;;2.30;;
52208;SDS011;38507;53.132;6.394;2022-10-16T08:11:01;6.65;;;2.08;;
52208;SDS011;38507;53.132;6.394;2022-10-16T08:13:28;7.55;;;2.10;;
52208;SDS011;38507;53.132;6.394;2022-10-16T08:15:54;9.70;;;2.15;;
52208;SDS011;38507;53.132;6.394;2022-10-16T08:18:20;6.20;;;1.80;;
52208;SDS011;38507;53.132;6.394;2022-10-16T08:20:46;7.85;;;1.50;;
52208;SDS011;38507;53.132;6.394;2022-10-16T08:23:12;5.40;;;1.65;;
52208;SDS011;38507;53.132;6.394;2022-10-16T08:25:38;7.43;;;1.70;;
52208;SDS011;38507;53.132;6.394;2022-10-16T08:28:06;4.60;;;2.13;;
52208;SDS011;38507;53.132;6.394;2022-10-16T08:30:33;7.75;;;2.00;;
52208;SDS011;38507;53.132;6.394;2022-10-16T08:32:59;6.32;;;1.63;;
52208;SDS011;38507;53.132;6.394;2022-10-16T08:35:25;6.85;;;1.70;;
52208;SDS011;38507;53.132;6.394;2022-10-16T08:37:50;7.55;;;1.60;;
52208;SDS011;38507;53.132;6.394;2022-10-16T08:48:27;6.03;;;1.40;;
52208;SDS011;38507;53.132;6.394;2022-10-16T08:50:54;5.38;;;1.13;;
52208;SDS011;38507;53.132;6.394;2022-10-16T08:53:22;6.72;;;1.25;;
52208;SDS011;38507;53.132;6.394;2022-10-16T08:55:53;4.93;;;1.20;;
52208;SDS011;38507;53.132;6.394;2022-10-16T08:58:28;7.38;;;1.27;;
52208;SDS011;38507;53.132;6.394;2022-10-16T09:00:59;8.05;;;1.35;;
52208;SDS011;38507;53.132;6.394;2022-10-16T09:03:40;5.63;;;1.27;;
52208;SDS011;38507;53.132;6.394;2022-10-16T09:17:41;10.48;;;2.60;;
52208;SDS011;38507;53.132;6.394;2022-10-16T09:23:17;8.10;;;1.48;;
52208;SDS011;38507;53.132;6.394;2022-10-16T09:25:48;7.00;;;1.20;;
52208;SDS011;38507;53.132;6.394;2022-10-16T09:28:15;9.07;;;1.70;;
52208;SDS011;38507;53.132;6.394;2022-10-16T09:30:42;10.02;;;1.80;;
52208;SDS011;38507;53.132;6.394;2022-10-16T09:33:09;10.20;;;1.70;;
52208;SDS011;38507;53.132;6.394;2022-10-16T09:38:06;6.75;;;1.42;;
52208;SDS011;38507;53.132;6.394;2022-10-16T09:40:36;9.02;;;1.58;;
52208;SDS011;38507;53.132;6.394;2022-10-16T09:45:41;9.60;;;1.45;;
52208;SDS011;38507;53.132;6.394;2022-10-16T09:48:11;11.55;;;1.77;;
52208;SDS011;38507;53.132;6.394;2022-10-16T09:50:42;10.48;;;1.90;;
52208;SDS011;38507;53.132;6.394;2022-10-16T09:53:10;9.80;;;1.48;;
52208;SDS011;38507;53.132;6.394;2022-10-16T09:55:47;12.93;;;2.08;;
52208;SDS011;38507;53.132;6.394;2022-10-16T09:58:16;9.25;;;1.63;;
52208;SDS011;38507;53.132;6.394;2022-10-16T10:00:48;13.48;;;2.05;;
52208;SDS011;38507;53.132;6.394;2022-10-16T10:03:23;10.82;;;1.48;;
52208;SDS011;38507;53.132;6.394;2022-10-16T10:06:01;8.47;;;1.97;;
52208;SDS011;38507;53.132;6.394;2022-10-16T10:08:41;13.25;;;1.67;;
52208;SDS011;38507;53.132;6.394;2022-10-16T10:11:36;13.13;;;2.50;;
52208;SDS011;38507;53.132;6.394;2022-10-16T10:14:08;7.80;;;1.88;;
52208;SDS011;38507;53.132;6.394;2022-10-16T10:16:44;14.18;;;2.05;;
52208;SDS011;38507;53.132;6.394;2022-10-16T10:19:18;15.13;;;2.33;;
52208;SDS011;38507;53.132;6.394;2022-10-16T10:24:12;14.48;;;1.90;;
52208;SDS011;38507;53.132;6.394;2022-10-16T10:26:41;15.25;;;2.33;;
52208;SDS011;38507;53.132;6.394;2022-10-16T10:29:25;16.42;;;2.30;;
52208;SDS011;38507;53.132;6.394;2022-10-16T10:40:43;16.38;;;2.55;;
52208;SDS011;38507;53.132;6.394;2022-10-16T10:53:15;12.95;;;2.03;;
52208;SDS011;38507;53.132;6.394;2022-10-16T10:55:57;12.88;;;2.20;;
52208;SDS011;38507;53.132;6.394;2022-10-16T11:01:15;13.18;;;1.92;;
52208;SDS011;38507;53.132;6.394;2022-10-16T11:06:32;17.33;;;2.00;;
52208;SDS011;38507;53.132;6.394;2022-10-16T11:09:18;14.93;;;2.45;;
52208;SDS011;38507;53.132;6.394;2022-10-16T11:12:02;14.55;;;1.85;;
52208;SDS011;38507;53.132;6.394;2022-10-16T11:14:50;12.13;;;2.10;;
52208;SDS011;38507;53.132;6.394;2022-10-16T11:17:29;10.27;;;1.70;;
52208;SDS011;38507;53.132;6.394;2022-10-16T11:20:13;15.68;;;2.58;;
52208;SDS011;38507;53.132;6.394;2022-10-16T11:25:22;13.32;;;1.83;;
52208;SDS011;38507;53.132;6.394;2022-10-16T11:28:01;18.00;;;2.80;;
52208;SDS011;38507;53.132;6.394;2022-10-16T11:30:55;14.43;;;2.08;;
52208;SDS011;38507;53.132;6.394;2022-10-16T11:33:27;12.88;;;2.08;;
52208;SDS011;38507;53.132;6.394;2022-10-16T11:36:12;15.73;;;1.98;;
52208;SDS011;38507;53.132;6.394;2022-10-16T11:39:06;10.63;;;2.25;;
52208;SDS011;38507;53.132;6.394;2022-10-16T11:47:19;12.15;;;2.03;;
52208;SDS011;38507;53.132;6.394;2022-10-16T11:50:29;17.63;;;2.38;;
52208;SDS011;38507;53.132;6.394;2022-10-16T11:55:55;19.75;;;2.47;;
52208;SDS011;38507;53.132;6.394;2022-10-16T11:58:29;9.27;;;1.85;;
52208;SDS011;38507;53.132;6.394;2022-10-16T12:08:58;13.60;;;2.38;;
52208;SDS011;38507;53.132;6.394;2022-10-16T12:14:07;11.55;;;1.85;;
52208;SDS011;38507;53.132;6.394;2022-10-16T12:19:18;12.80;;;1.80;;
52208;SDS011;38507;53.132;6.394;2022-10-16T12:21:44;11.30;;;1.55;;
52208;SDS011;38507;53.132;6.394;2022-10-16T12:24:19;12.35;;;2.08;;
52208;SDS011;38507;53.132;6.394;2022-10-16T12:26:52;12.23;;;1.88;;
52208;SDS011;38507;53.132;6.394;2022-10-16T12:32:20;8.63;;;1.83;;
52208;SDS011;38507;53.132;6.394;2022-10-16T12:34:48;10.85;;;1.88;;
52208;SDS011;38507;53.132;6.394;2022-10-16T12:37:14;14.50;;;1.98;;
52208;SDS011;38507;53.132;6.394;2022-10-16T12:39:53;12.20;;;1.60;;
52208;SDS011;38507;53.132;6.394;2022-10-16T12:44:52;11.40;;;1.63;;
52208;SDS011;38507;53.132;6.394;2022-10-16T12:47:47;15.57;;;1.73;;
52208;SDS011;38507;53.132;6.394;2022-10-16T12:52:51;18.40;;;2.47;;
52208;SDS011;38507;53.132;6.394;2022-10-16T12:55:17;14.45;;;2.15;;
52208;SDS011;38507;53.132;6.394;2022-10-16T12:58:04;11.73;;;1.42;;
52208;SDS011;38507;53.132;6.394;2022-10-16T13:00:47;15.55;;;2.10;;
52208;SDS011;38507;53.132;6.394;2022-10-16T13:03:22;10.73;;;1.92;;
52208;SDS011;38507;53.132;6.394;2022-10-16T13:06:11;15.77;;;2.97;;
52208;SDS011;38507;53.132;6.394;2022-10-16T13:09:02;11.82;;;2.08;;
52208;SDS011;38507;53.132;6.394;2022-10-16T13:14:57;16.17;;;2.53;;
52208;SDS011;38507;53.132;6.394;2022-10-16T13:17:33;18.25;;;2.10;;
52208;SDS011;38507;53.132;6.394;2022-10-16T13:28:07;10.57;;;1.85;;
52208;SDS011;38507;53.132;6.394;2022-10-16T13:30:52;11.50;;;1.80;;
52208;SDS011;38507;53.132;6.394;2022-10-16T13:33:27;16.50;;;2.35;;
52208;SDS011;38507;53.132;6.394;2022-10-16T13:35:58;15.52;;;2.80;;
52208;SDS011;38507;53.132;6.394;2022-10-16T13:38:25;14.23;;;2.50;;
52208;SDS011;38507;53.132;6.394;2022-10-16T13:40:53;13.88;;;2.08;;
52208;SDS011;38507;53.132;6.394;2022-10-16T13:45:55;12.75;;;1.80;;
52208;SDS011;38507;53.132;6.394;2022-10-16T13:48:22;15.52;;;1.90;;
52208;SDS011;38507;53.132;6.394;2022-10-16T13:50:57;17.60;;;2.28;;
52208;SDS011;38507;53.132;6.394;2022-10-16T13:53:26;13.65;;;1.95;;
52208;SDS011;38507;53.132;6.394;2022-10-16T13:55:54;17.23;;;2.08;;
52208;SDS011;38507;53.132;6.394;2022-10-16T13:58:21;12.48;;;2.00;;
52208;SDS011;38507;53.132;6.394;2022-10-16T14:00:54;13.50;;;2.25;;
52208;SDS011;38507;53.132;6.394;2022-10-16T14:03:24;14.70;;;2.25;;
52208;SDS011;38507;53.132;6.394;2022-10-16T14:08:18;14.63;;;1.88;;
52208;SDS011;38507;53.132;6.394;2022-10-16T14:10:47;10.32;;;1.73;;
52208;SDS011;38507;53.132;6.394;2022-10-16T14:13:17;9.93;;;1.50;;
52208;SDS011;38507;53.132;6.394;2022-10-16T14:15:49;13.00;;;2.03;;
52208;SDS011;38507;53.132;6.394;2022-10-16T14:18:20;12.75;;;2.40;;
52208;SDS011;38507;53.132;6.394;2022-10-16T14:20:47;14.93;;;2.30;;
52208;SDS011;38507;53.132;6.394;2022-10-16T14:23:19;14.05;;;1.90;;
52208;SDS011;38507;53.132;6.394;2022-10-16T14:25:54;16.35;;;2.13;;
52208;SDS011;38507;53.132;6.394;2022-10-16T14:28:42;15.07;;;3.00;;
52208;SDS011;38507;53.132;6.394;2022-10-16T14:33:55;21.00;;;2.47;;
52208;SDS011;38507;53.132;6.394;2022-10-16T14:36:23;12.55;;;1.70;;
52208;SDS011;38507;53.132;6.394;2022-10-16T14:39:03;19.15;;;2.70;;
52208;SDS011;38507;53.132;6.394;2022-10-16T14:41:46;15.25;;;2.42;;
52208;SDS011;38507;53.132;6.394;2022-10-16T14:44:13;12.80;;;1.73;;
52208;SDS011;38507;53.132;6.394;2022-10-16T14:46:42;10.85;;;1.67;;
52208;SDS011;38507;53.132;6.394;2022-10-16T14:51:34;10.43;;;1.70;;
52208;SDS011;38507;53.132;6.394;2022-10-16T14:54:00;13.77;;;2.10;;
52208;SDS011;38507;53.132;6.394;2022-10-16T14:56:34;12.25;;;1.80;;
52208;SDS011;38507;53.132;6.394;2022-10-16T14:59:12;12.80;;;1.88;;
52208;SDS011;38507;53.132;6.394;2022-10-16T15:01:49;9.02;;;1.70;;
52208;SDS011;38507;53.132;6.394;2022-10-16T15:04:15;12.13;;;1.98;;
52208;SDS011;38507;53.132;6.394;2022-10-16T15:06:41;12.93;;;2.00;;
52208;SDS011;38507;53.132;6.394;2022-10-16T15:09:07;11.50;;;1.58;;
52208;SDS011;38507;53.132;6.394;2022-10-16T15:11:33;12.10;;;2.45;;
52208;SDS011;38507;53.132;6.394;2022-10-16T15:13:59;18.13;;;2.30;;
52208;SDS011;38507;53.132;6.394;2022-10-16T15:16:25;14.68;;;2.53;;
52208;SDS011;38507;53.132;6.394;2022-10-16T15:18:50;14.75;;;1.80;;
52208;SDS011;38507;53.132;6.394;2022-10-16T15:21:23;14.27;;;1.92;;
52208;SDS011;38507;53.132;6.394;2022-10-16T15:23:52;14.07;;;2.42;;
52208;SDS011;38507;53.132;6.394;2022-10-16T15:26:18;16.45;;;2.00;;
52208;SDS011;38507;53.132;6.394;2022-10-16T15:28:44;14.73;;;2.00;;
52208;SDS011;38507;53.132;6.394;2022-10-16T15:31:09;17.00;;;2.40;;
52208;SDS011;38507;53.132;6.394;2022-10-16T15:33:35;14.70;;;2.33;;
52208;SDS011;38507;53.132;6.394;2022-10-16T15:36:10;17.23;;;2.72;;
52208;SDS011;38507;53.132;6.394;2022-10-16T15:38:41;10.65;;;1.58;;
52208;SDS011;38507;53.132;6.394;2022-10-16T15:41:07;10.77;;;1.40;;
52208;SDS011;38507;53.132;6.394;2022-10-16T15:43:32;15.50;;;1.73;;
52208;SDS011;38507;53.132;6.394;2022-10-16T15:45:59;8.65;;;1.63;;
52208;SDS011;38507;53.132;6.394;2022-10-16T15:48:27;16.05;;;1.88;;
52208;SDS011;38507;53.132;6.394;2022-10-16T15:50:54;10.85;;;1.92;;
52208;SDS011;38507;53.132;6.394;2022-10-16T15:53:19;20.17;;;2.30;;
52208;SDS011;38507;53.132;6.394;2022-10-16T15:55:45;13.48;;;2.33;;
52208;SDS011;38507;53.132;6.394;2022-10-16T15:58:11;14.20;;;2.10;;
52208;SDS011;38507;53.132;6.394;2022-10-16T16:00:55;17.83;;;2.10;;
52208;SDS011;38507;53.132;6.394;2022-10-16T16:03:21;14.23;;;1.58;;
52208;SDS011;38507;53.132;6.394;2022-10-16T16:05:47;8.52;;;1.60;;
52208;SDS011;38507;53.132;6.394;2022-10-16T16:08:13;12.52;;;2.33;;
52208;SDS011;38507;53.132;6.394;2022-10-16T16:10:38;13.75;;;3.75;;
52208;SDS011;38507;53.132;6.394;2022-10-16T16:13:04;15.15;;;2.80;;
52208;SDS011;38507;53.132;6.394;2022-10-16T16:15:30;12.13;;;2.22;;
52208;SDS011;38507;53.132;6.394;2022-10-16T16:17:58;14.23;;;2.05;;
52208;SDS011;38507;53.132;6.394;2022-10-16T16:20:25;14.55;;;2.10;;
52208;SDS011;38507;53.132;6.394;2022-10-16T16:22:50;16.23;;;2.17;;
52208;SDS011;38507;53.132;6.394;2022-10-16T16:25:16;9.95;;;1.73;;
52208;SDS011;38507;53.132;6.394;2022-10-16T16:27:42;9.07;;;1.63;;
52208;SDS011;38507;53.132;6.394;2022-10-16T16:30:10;8.73;;;1.17;;
52208;SDS011;38507;53.132;6.394;2022-10-16T16:32:36;7.90;;;1.55;;
52208;SDS011;38507;53.132;6.394;2022-10-16T16:35:02;11.75;;;1.38;;
52208;SDS011;38507;53.132;6.394;2022-10-16T16:37:28;14.82;;;1.35;;
52208;SDS011;38507;53.132;6.394;2022-10-16T16:40:00;14.02;;;2.08;;
52208;SDS011;38507;53.132;6.394;2022-10-16T16:42:26;11.85;;;1.60;;
52208;SDS011;38507;53.132;6.394;2022-10-16T16:44:52;5.07;;;1.30;;
52208;SDS011;38507;53.132;6.394;2022-10-16T16:47:18;8.63;;;1.42;;
52208;SDS011;38507;53.132;6.394;2022-10-16T16:49:50;7.80;;;1.58;;
52208;SDS011;38507;53.132;6.394;2022-10-16T16:52:16;10.90;;;1.73;;
52208;SDS011;38507;53.132;6.394;2022-10-16T16:54:42;9.60;;;1.45;;
52208;SDS011;38507;53.132;6.394;2022-10-16T16:57:09;7.00;;;1.40;;
52208;SDS011;38507;53.132;6.394;2022-10-16T16:59:35;9.50;;;1.65;;
52208;SDS011;38507;53.132;6.394;2022-10-16T17:02:01;13.70;;;1.45;;
52208;SDS011;38507;53.132;6.394;2022-10-16T17:04:30;11.50;;;2.05;;
52208;SDS011;38507;53.132;6.394;2022-10-16T17:06:56;10.55;;;1.92;;